Time;durP1;ratioP1;P1;durP2;ratioP2;P2;SDS_P1;SDS_P2;PMS_P1;PMS_P2;Temp;Humidity;BMP_temperature;BMP_pressure;BME280_temperature;BME280_humidity;BME280_pressure;Samples;Min_cycle;Max_cycle;Signal;HPM_P1;HPM_P2
2023/12/11 00:01:21;;;;;;;;;;;;;;;8.86;100.00;98645.22;4887524;29;20373;-96
2023/12/11 00:03:54;;;;;;;;;;;;;;;8.85;100.00;98644.44;4910490;29;19970;-96
2023/12/11 00:06:20;;;;;;;;;;;;;;;8.82;100.00;98657.94;4925858;29;19919;-96
2023/12/11 00:08:49;;;;;;;;;;;;;;;8.82;100.00;98660.59;4892400;29;19919;-96
2023/12/11 00:11:18;;;;;;;;;;;;;;;8.79;100.00;98660.94;4894264;29;19919;-96
2023/12/11 00:13:44;;;;;;;;;;;;;;;8.80;100.00;98671.31;4904984;29;19915;-96
2023/12/11 00:16:10;;;;;;;;;;;;;;;8.78;100.00;98675.91;4892745;29;19915;-96
2023/12/11 00:18:35;;;;;;;;;;;;;;;8.78;100.00;98678.56;4904602;29;19915;-96
2023/12/11 00:21:01;;;;;;;;;;;;;;;8.80;100.00;98683.66;4903369;29;20334;-96
2023/12/11 00:23:29;;;;;;;;;;;;;;;8.80;100.00;98673.09;4908195;29;19915;-96
2023/12/11 00:25:58;;;;;;;;;;;;;;;8.78;100.00;98681.19;4906948;29;19944;-96
2023/12/11 00:28:23;;;;;;;;;;;;;;;8.77;100.00;98679.56;4889191;29;20446;-96
2023/12/11 00:30:49;;;;;;;;;;;;;;;8.80;100.00;98688.91;4908776;29;19915;-96
2023/12/11 00:33:15;;;;;;;;;;;;;;;8.80;100.00;98683.66;4891794;29;19922;-96
2023/12/11 00:35:43;;;;;;;;;;;;;;;8.78;100.00;98686.47;4907558;29;19922;-96
2023/12/11 00:38:09;;;;;;;;;;;;;;;8.78;100.00;98686.47;4891878;29;20393;-96
2023/12/11 00:40:35;;;;;;;;;;;;;;;8.76;100.00;98683.16;4924076;29;19916;-96
2023/12/11 00:43:00;;;;;;;;;;;;;;;8.76;100.00;98691.06;4892549;29;19915;-96
2023/12/11 00:45:26;;;;;;;;;;;;;;;8.76;100.00;98679.75;4893582;29;19986;-96
2023/12/11 00:48:02;;;;;;;;;;;;;;;8.73;100.00;98680.09;4887969;29;19923;-96
2023/12/11 00:50:30;;;;;;;;;;;;;;;8.73;100.00;98673.00;4914035;29;19919;-96
2023/12/11 00:52:56;;;;;;;;;;;;;;;8.72;100.00;98694.25;4894963;29;19916;-96
2023/12/11 00:55:22;;;;;;;;;;;;;;;8.71;100.00;98693.44;4911388;29;19919;-96
2023/12/11 00:57:51;;;;;;;;;;;;;;;8.68;100.00;98702.50;4896302;29;19923;-96
2023/12/11 01:00:17;;;;;;;;;;;;;;;8.70;100.00;98702.31;4902382;29;20274;-96
2023/12/11 01:02:43;;;;;;;;;;;;;;;8.68;100.00;98702.50;4909488;29;19929;-96
2023/12/11 01:05:16;;;;;;;;;;;;;;;8.69;100.00;98709.38;4903986;29;20009;-96
2023/12/11 01:07:47;;;;;;;;;;;;;;;8.68;100.00;98720.94;4879906;29;19919;-96
2023/12/11 01:10:13;;;;;;;;;;;;;;;8.69;100.00;98721.75;4892921;29;19922;-96
2023/12/11 01:12:39;;;;;;;;;;;;;;;8.69;100.00;98717.28;4892495;29;19918;-96
2023/12/11 01:15:05;;;;;;;;;;;;;;;8.71;100.00;98718.94;4893543;29;19922;-96
2023/12/11 01:17:31;;;;;;;;;;;;;;;8.68;100.00;98722.72;4895081;29;19922;-96
2023/12/11 01:19:56;;;;;;;;;;;;;;;8.67;100.00;98724.56;4880728;29;19927;-96
2023/12/11 01:22:22;;;;;;;;;;;;;;;8.65;100.00;98723.09;4927008;29;19915;-96
2023/12/11 01:25:06;;;;;;;;;;;;;;;8.65;100.00;98736.25;4893929;29;19995;-96
2023/12/11 01:27:43;;;;;;;;;;;;;;;8.63;100.00;98739.06;4895894;29;20434;-96
2023/12/11 01:30:09;;;;;;;;;;;;;;;8.59;100.00;98745.69;4892829;29;19919;-96
2023/12/11 01:32:35;;;;;;;;;;;;;;;8.55;100.00;98733.88;4879914;29;19946;-96
2023/12/11 01:35:01;;;;;;;;;;;;;;;8.51;100.00;98749.16;4893903;29;19978;-96
2023/12/11 01:37:27;;;;;;;;;;;;;;;8.49;100.00;98755.59;4876242;29;19916;-96
2023/12/11 01:39:53;;;;;;;;;;;;;;;8.42;100.00;98756.28;4893970;29;19922;-96
2023/12/11 01:42:19;;;;;;;;;;;;;;;8.39;100.00;98763.69;4904461;29;19954;-96
2023/12/11 01:44:45;;;;;;;;;;;;;;;8.37;100.00;98771.78;4882572;29;20377;-96
2023/12/11 01:47:13;;;;;;;;;;;;;;;8.37;100.00;98778.84;4916059;29;19922;-96
2023/12/11 01:49:39;;;;;;;;;;;;;;;8.37;100.00;98789.38;4892799;29;19957;-96
2023/12/11 01:52:11;;;;;;;;;;;;;;;8.37;100.00;98781.47;4886419;29;19949;-95
2023/12/11 01:54:38;;;;;;;;;;;;;;;8.36;100.00;98790.38;4897752;29;19919;-96
2023/12/11 01:57:05;;;;;;;;;;;;;;;8.35;100.00;98788.72;4892061;29;19915;-96
2023/12/11 01:59:31;;;;;;;;;;;;;;;8.31;100.00;98796.94;4908757;29;20358;-96
2023/12/11 02:01:58;;;;;;;;;;;;;;;8.30;100.00;98803.22;4894906;29;19921;-96
2023/12/11 02:04:24;;;;;;;;;;;;;;;8.29;100.00;98808.66;4892563;29;19915;-96
2023/12/11 02:06:50;;;;;;;;;;;;;;;8.25;100.00;98813.44;4890538;29;19925;-90
2023/12/11 02:09:16;;;;;;;;;;;;;;;8.23;100.00;98818.06;4895871;29;19922;-91
2023/12/11 02:11:42;;;;;;;;;;;;;;;8.22;100.00;98818.22;4889484;29;19915;-96
2023/12/11 02:14:08;;;;;;;;;;;;;;;8.20;100.00;98828.94;4913229;29;19938;-96
2023/12/11 02:16:35;;;;;;;;;;;;;;;8.20;100.00;98836.81;4897263;29;19914;-96
2023/12/11 02:19:01;;;;;;;;;;;;;;;8.18;100.00;98849.31;4896136;29;19981;-96
2023/12/11 02:21:27;;;;;;;;;;;;;;;8.23;100.00;98848.81;4904896;29;19919;-89
2023/12/11 02:23:59;;;;;;;;;;;;;;;8.25;100.00;98850.28;4902900;29;19921;-88
2023/12/11 02:26:25;;;;;;;;;;;;;;;8.26;100.00;98861.63;4908116;29;19921;-95
2023/12/11 02:28:50;;;;;;;;;;;;;;;8.25;100.00;98871.34;4899502;29;20001;-96
2023/12/11 02:31:16;;;;;;;;;;;;;;;8.26;100.00;98870.38;4899941;29;19914;-96
2023/12/11 02:33:42;;;;;;;;;;;;;;;8.27;100.00;98879.06;4912670;29;19914;-94
2023/12/11 02:36:08;;;;;;;;;;;;;;;8.26;100.00;98873.00;4905065;29;19927;-95
2023/12/11 02:38:34;;;;;;;;;;;;;;;8.26;100.00;98869.53;4896393;29;19918;-95
2023/12/11 02:41:01;;;;;;;;;;;;;;;8.26;100.00;98880.91;4907724;29;19919;-95
2023/12/11 02:43:27;;;;;;;;;;;;;;;8.27;100.00;98879.06;4909054;29;19915;-95
2023/12/11 02:46:11;;;;;;;;;;;;;;;8.27;100.00;98879.88;4891491;29;19926;-96
2023/12/11 02:48:36;;;;;;;;;;;;;;;8.27;100.00;98884.31;4902585;29;19919;-96
2023/12/11 02:51:02;;;;;;;;;;;;;;;8.26;100.00;98891.41;4895314;29;19914;-96
2023/12/11 02:53:28;;;;;;;;;;;;;;;8.25;100.00;98886.31;4893392;29;19919;-95
2023/12/11 02:55:55;;;;;;;;;;;;;;;8.24;100.00;98895.19;4904276;29;19939;-95
2023/12/11 02:58:21;;;;;;;;;;;;;;;8.24;100.00;98893.38;4904881;29;19914;-96
2023/12/11 03:00:46;;;;;;;;;;;;;;;8.24;100.00;98906.56;4916434;29;19954;-95
2023/12/11 03:03:12;;;;;;;;;;;;;;;8.22;100.00;98908.53;4897892;29;19918;-96
2023/12/11 03:05:38;;;;;;;;;;;;;;;8.24;100.00;98914.44;4905095;29;19927;-95
2023/12/11 03:08:04;;;;;;;;;;;;;;;8.21;100.00;98906.88;4895460;29;19982;-95
2023/12/11 03:10:31;;;;;;;;;;;;;;;8.18;100.00;98907.22;4898276;29;19926;-95
2023/12/11 03:12:57;;;;;;;;;;;;;;;8.14;100.00;98905.91;4892199;29;19964;-95
2023/12/11 03:18:57;;;;;;;;;;;;;;;8.10;100.00;98915.94;4922164;29;19914;-94
2023/12/11 03:21:23;;;;;;;;;;;;;;;8.09;100.00;98911.66;4881750;29;19951;-95
2023/12/11 03:23:48;;;;;;;;;;;;;;;8.06;100.00;98919.88;4907594;29;19918;-95
2023/12/11 03:26:14;;;;;;;;;;;;;;;8.03;100.00;98920.22;4907160;29;19949;-95
2023/12/11 03:28:40;;;;;;;;;;;;;;;8.01;100.00;98916.94;4910555;29;19919;-95
2023/12/11 03:31:06;;;;;;;;;;;;;;;7.97;100.00;98924.34;4906386;29;20006;-96
2023/12/11 03:33:32;;;;;;;;;;;;;;;7.97;100.00;98926.97;4901976;29;19915;-96
2023/12/11 03:35:58;;;;;;;;;;;;;;;7.97;100.00;98936.66;4909171;29;20400;-96
2023/12/11 03:38:24;;;;;;;;;;;;;;;7.99;100.00;98946.06;4896200;29;19950;-95
2023/12/11 03:40:50;;;;;;;;;;;;;;;8.00;100.00;98945.06;4894264;29;19996;-96
2023/12/11 03:43:16;;;;;;;;;;;;;;;7.99;100.00;98947.84;4927264;29;19982;-95
2023/12/11 03:45:42;;;;;;;;;;;;;;;8.01;100.00;98959.06;4908779;29;20013;-95
2023/12/11 03:48:07;;;;;;;;;;;;;;;8.02;100.00;98951.00;4897272;29;20018;-95
2023/12/11 03:50:33;;;;;;;;;;;;;;;8.01;100.00;98956.41;4922942;29;19915;-96
2023/12/11 03:52:59;;;;;;;;;;;;;;;8.01;100.00;98957.22;4898922;29;19915;-96
2023/12/11 03:55:25;;;;;;;;;;;;;;;8.03;100.00;98967.59;4897438;29;19915;-95
2023/12/11 03:57:51;;;;;;;;;;;;;;;8.00;100.00;98971.38;4891627;29;19954;-96
2023/12/11 04:00:17;;;;;;;;;;;;;;;8.01;100.00;98972.22;4908303;29;19919;-95
2023/12/11 04:02:42;;;;;;;;;;;;;;;8.01;100.00;98972.22;4893637;29;19925;-95
2023/12/11 04:05:09;;;;;;;;;;;;;;;7.99;100.00;98967.13;4893745;29;19923;-96
2023/12/11 04:07:38;;;;;;;;;;;;;;;7.97;100.00;98965.59;4907185;29;20012;-95
2023/12/11 04:10:04;;;;;;;;;;;;;;;7.94;100.00;98972.03;4895945;29;19926;-96
2023/12/11 04:12:29;;;;;;;;;;;;;;;7.89;100.00;98969.91;4891163;29;19916;-96
2023/12/11 04:14:55;;;;;;;;;;;;;;;7.82;100.00;98979.41;4909357;29;20273;-96
2023/12/11 04:17:21;;;;;;;;;;;;;;;7.79;100.00;98983.19;4912018;29;19915;-95
2023/12/11 04:19:47;;;;;;;;;;;;;;;7.74;100.00;98995.19;4894215;29;19918;-96
2023/12/11 04:22:13;;;;;;;;;;;;;;;7.70;100.00;98986.81;4899058;29;19919;-96
2023/12/11 04:24:39;;;;;;;;;;;;;;;7.68;100.00;98994.84;4901005;29;20013;-96
2023/12/11 04:27:08;;;;;;;;;;;;;;;7.67;100.00;98998.47;4909224;29;19919;-96
2023/12/11 04:29:33;;;;;;;;;;;;;;;7.66;100.00;99007.34;4908214;29;19914;-96
2023/12/11 04:31:59;;;;;;;;;;;;;;;7.68;100.00;99007.16;4925403;29;19910;-96
2023/12/11 04:34:25;;;;;;;;;;;;;;;7.67;100.00;99009.00;4907867;29;19982;-96
2023/12/11 04:36:51;;;;;;;;;;;;;;;7.67;100.00;99022.16;4904946;29;19922;-96
2023/12/11 04:39:20;;;;;;;;;;;;;;;7.64;100.00;99016.38;4910703;29;20013;-96
2023/12/11 04:41:46;;;;;;;;;;;;;;;7.60;100.00;99020.31;4908996;29;19915;-96
2023/12/11 04:44:12;;;;;;;;;;;;;;;7.54;100.00;99029.66;4890487;29;19930;-96
2023/12/11 04:46:38;;;;;;;;;;;;;;;7.49;100.00;99029.31;4905835;29;20370;-89
2023/12/11 04:49:03;;;;;;;;;;;;;;;7.44;100.00;99032.41;4907640;29;19933;-96
2023/12/11 04:51:29;;;;;;;;;;;;;;;7.36;100.00;99035.84;4892339;29;19921;-96
2023/12/11 04:53:55;;;;;;;;;;;;;;;7.25;100.00;99046.63;4900969;29;20369;-96
2023/12/11 04:56:24;;;;;;;;;;;;;;;7.18;100.00;99049.06;4902538;29;20001;-96
2023/12/11 04:58:50;;;;;;;;;;;;;;;7.17;100.00;99045.63;4893582;29;19915;-96
2023/12/11 05:01:17;;;;;;;;;;;;;;;7.19;100.00;99055.97;4908876;29;19915;-96
2023/12/11 05:03:44;;;;;;;;;;;;;;;7.19;100.00;99056.81;4920809;29;19986;-96
2023/12/11 05:06:10;;;;;;;;;;;;;;;7.17;100.00;99048.25;4890414;29;19919;-96
2023/12/11 05:08:36;;;;;;;;;;;;;;;7.17;100.00;99045.63;4910819;29;19929;-96
2023/12/11 05:11:02;;;;;;;;;;;;;;;7.15;100.00;99049.38;4908069;29;19939;-96
2023/12/11 05:13:28;;;;;;;;;;;;;;;7.13;100.00;99051.34;4907969;29;19919;-96
2023/12/11 05:15:55;;;;;;;;;;;;;;;7.12;100.00;99044.44;4893462;29;19938;-96
2023/12/11 05:18:20;;;;;;;;;;;;;;;7.11;100.00;99058.53;4893055;29;19970;-96
2023/12/11 05:20:46;;;;;;;;;;;;;;;7.11;100.00;99058.53;4894320;29;20412;-96
2023/12/11 05:23:12;;;;;;;;;;;;;;;7.05;100.00;99060.84;4887439;29;19914;-96
2023/12/11 05:25:38;;;;;;;;;;;;;;;7.00;100.00;99063.09;4889527;29;19919;-96
2023/12/11 05:28:04;;;;;;;;;;;;;;;6.93;100.00;99062.06;4890118;29;19919;-96
2023/12/11 05:30:31;;;;;;;;;;;;;;;6.85;100.00;99067.28;4888767;29;19993;-96
2023/12/11 05:32:57;;;;;;;;;;;;;;;6.76;100.00;99061.13;4911520;29;19915;-94
2023/12/11 05:35:23;;;;;;;;;;;;;;;6.63;100.00;99064.16;4890687;29;20029;-96
2023/12/11 05:37:49;;;;;;;;;;;;;;;6.55;100.00;99071.00;4891905;29;20003;-96
2023/12/11 05:40:15;;;;;;;;;;;;;;;6.48;100.00;99069.97;4893308;29;19915;-96
2023/12/11 05:42:41;;;;;;;;;;;;;;;6.44;100.00;99073.88;4907241;29;19914;-96
2023/12/11 05:45:08;;;;;;;;;;;;;;;6.41;100.00;99079.41;4915770;29;20284;-96
2023/12/11 05:47:34;;;;;;;;;;;;;;;6.38;100.00;99084.97;4889794;29;20373;-96
2023/12/11 05:50:00;;;;;;;;;;;;;;;6.35;100.00;99082.66;4897187;29;19962;-96
2023/12/11 05:52:26;;;;;;;;;;;;;;;6.35;100.00;99088.72;4910176;29;20366;-96
2023/12/11 05:54:52;;;;;;;;;;;;;;;6.32;100.00;99087.22;4895106;29;19977;-96
2023/12/11 05:57:18;;;;;;;;;;;;;;;6.31;100.00;99098.69;4896041;29;20263;-96
2023/12/11 05:59:47;;;;;;;;;;;;;;;6.27;100.00;99091.28;4902391;29;19965;-96
2023/12/11 06:02:13;;;;;;;;;;;;;;;6.25;100.00;99088.81;4909863;29;19914;-96
2023/12/11 06:04:39;;;;;;;;;;;;;;;6.22;100.00;99089.09;4893136;29;20002;-96
2023/12/11 06:07:06;;;;;;;;;;;;;;;6.14;100.00;99086.38;4908875;29;20009;-96
2023/12/11 06:09:31;;;;;;;;;;;;;;;6.03;100.00;99090.03;4903831;29;20467;-96
2023/12/11 06:12:15;;;;;;;;;;;;;;;5.98;100.00;99092.25;5183606;27;20469;-90
2023/12/11 06:14:42;;;;;;;;;;;;;;;5.94;100.00;99100.44;5147972;27;19922;-90
2023/12/11 06:17:08;;;;;;;;;;;;;;;5.90;100.00;99091.22;5144654;27;19921;-96
2023/12/11 06:19:34;;;;;;;;;;;;;;;5.91;100.00;99097.28;5145230;27;19914;-96
2023/12/11 06:22:05;;;;;;;;;;;;;;;5.91;100.00;99105.16;5148640;27;19923;-96
2023/12/11 06:24:31;;;;;;;;;;;;;;;5.88;100.00;99115.91;5143091;27;19915;-96
2023/12/11 06:40:25;;;;;;;;;;;;;;;5.62;100.00;99109.59;5739719;22;19923;-96
2023/12/11 06:42:51;;;;;;;;;;;;;;;5.54;100.00;99112.09;5126307;27;19978;-96
2023/12/11 06:45:18;;;;;;;;;;;;;;;5.44;100.00;99104.28;5119424;27;20375;-88
2023/12/11 06:47:43;;;;;;;;;;;;;;;5.44;100.00;99109.50;5116075;22;19950;-88
2023/12/11 06:50:09;;;;;;;;;;;;;;;5.49;100.00;99114.31;5112166;28;19923;-94
2023/12/11 06:52:35;;;;;;;;;;;;;;;5.49;100.00;99114.31;5105898;28;19961;-96
2023/12/11 06:55:02;;;;;;;;;;;;;;;5.52;100.00;99111.41;5112480;28;19972;-96
2023/12/11 06:57:28;;;;;;;;;;;;;;;5.54;100.00;99112.09;5099619;28;20000;-96
2023/12/11 06:59:53;;;;;;;;;;;;;;;5.52;100.00;99114.88;5115017;27;19958;-96
2023/12/11 07:02:19;;;;;;;;;;;;;;;5.53;100.00;99124.38;5116686;27;19922;-96
2023/12/11 07:04:45;;;;;;;;;;;;;;;5.56;100.00;99128.50;5106326;27;19965;-96
2023/12/11 07:07:10;;;;;;;;;;;;;;;5.53;100.00;99134.03;5123523;27;19915;-96
2023/12/11 07:09:36;;;;;;;;;;;;;;;5.52;100.00;99127.97;5108441;27;19920;-95
2023/12/11 07:12:02;;;;;;;;;;;;;;;5.52;100.00;99125.34;5105405;27;19925;-95
2023/12/11 07:14:27;;;;;;;;;;;;;;;5.50;100.00;99127.28;5124316;28;19955;-95
2023/12/11 07:16:53;;;;;;;;;;;;;;;5.42;100.00;99129.78;5130880;27;19941;-96
2023/12/11 07:19:21;;;;;;;;;;;;;;;5.39;100.00;99125.66;5107231;28;19916;-95
2023/12/11 07:21:47;;;;;;;;;;;;;;;5.34;100.00;99128.72;5093622;28;20011;-96
2023/12/11 07:24:13;;;;;;;;;;;;;;;5.33;100.00;99134.09;5114807;27;20005;-96
2023/12/11 07:26:39;;;;;;;;;;;;;;;5.38;100.00;99134.50;5098955;28;19919;-96
2023/12/11 07:29:07;;;;;;;;;;;;;;;5.41;100.00;99141.25;5095618;28;19915;-96
2023/12/11 07:31:33;;;;;;;;;;;;;;;5.41;100.00;99149.13;5113571;27;19968;-87
2023/12/11 07:33:58;;;;;;;;;;;;;;;5.43;100.00;99148.00;5095762;28;19919;-87
2023/12/11 07:36:24;;;;;;;;;;;;;;;5.46;100.00;99154.75;5091962;28;19916;-96
2023/12/11 07:38:50;;;;;;;;;;;;;;;5.49;100.00;99159.72;5096725;27;19924;-96
2023/12/11 07:41:22;;;;;;;;;;;;;;;5.43;100.00;99161.09;5097442;28;20364;-95
2023/12/11 07:43:48;;;;;;;;;;;;;;;5.43;100.00;99149.81;5114472;28;20006;-96
2023/12/11 07:46:17;;;;;;;;;;;;;;;5.38;100.00;99152.84;5108434;27;20018;-88
2023/12/11 07:48:43;;;;;;;;;;;;;;;5.42;100.00;99169.94;5105980;27;20329;-88
2023/12/11 07:51:16;;;;;;;;;;;;;;;5.45;100.00;99163.56;5119065;27;19915;-96
2023/12/11 07:53:41;;;;;;;;;;;;;;;5.47;100.00;99161.66;5097064;28;19947;-95
2023/12/11 07:56:07;;;;;;;;;;;;;;;5.44;100.00;99167.16;5087380;27;19959;-96
2023/12/11 07:58:33;;;;;;;;;;;;;;;5.36;100.00;99165.25;5099772;27;19916;-96
2023/12/11 08:00:59;;;;;;;;;;;;;;;5.28;100.00;99170.38;5093626;27;19924;-95
2023/12/11 08:03:24;;;;;;;;;;;;;;;5.16;100.00;99172.34;5108086;27;20003;-96
2023/12/11 08:05:50;;;;;;;;;;;;;;;5.02;100.00;99174.41;5096230;27;19998;-96
2023/12/11 08:08:15;;;;;;;;;;;;;;;4.96;100.00;99181.06;5115947;27;20056;-96
2023/12/11 08:10:41;;;;;;;;;;;;;;;4.93;100.00;99181.34;5119741;27;20238;-96
2023/12/11 08:13:07;;;;;;;;;;;;;;;4.93;100.00;99193.59;5101095;27;19915;-96
2023/12/11 08:15:35;;;;;;;;;;;;;;;4.90;100.00;99194.72;5113590;27;19921;-96
2023/12/11 08:18:01;;;;;;;;;;;;;;;4.89;100.00;99189.59;5125378;27;20365;-96
2023/12/11 08:20:27;;;;;;;;;;;;;;;4.88;100.00;99187.94;5096398;27;19923;-96
2023/12/11 08:22:53;;;;;;;;;;;;;;;4.90;100.00;99189.47;5098123;27;19919;-96
2023/12/11 08:25:18;;;;;;;;;;;;;;;4.93;100.00;99190.97;5114248;27;19916;-96
2023/12/11 08:27:44;;;;;;;;;;;;;;;4.89;100.00;99187.00;5107196;27;20007;-95
2023/12/11 08:30:10;;;;;;;;;;;;;;;4.87;100.00;99197.59;5094316;27;19915;-96
2023/12/11 08:32:39;;;;;;;;;;;;;;;4.87;100.00;99205.47;5103170;27;19919;-96
2023/12/11 08:35:05;;;;;;;;;;;;;;;4.74;100.00;99204.88;5088318;27;19915;-96
2023/12/11 08:37:31;;;;;;;;;;;;;;;4.70;100.00;99212.19;5100098;27;20430;-96
2023/12/11 08:39:56;;;;;;;;;;;;;;;4.75;100.00;99214.38;5120535;27;19963;-96
2023/12/11 08:42:22;;;;;;;;;;;;;;;4.76;100.00;99209.00;5097894;27;19922;-96
2023/12/11 08:44:48;;;;;;;;;;;;;;;4.79;100.00;99206.16;5099971;27;19922;-96
2023/12/11 08:47:13;;;;;;;;;;;;;;;4.84;100.00;99203.91;5084771;27;19919;-96
2023/12/11 08:49:39;;;;;;;;;;;;;;;4.90;100.00;99209.59;5100516;27;19915;-96
2023/12/11 08:52:05;;;;;;;;;;;;;;;4.94;100.00;99210.94;5101119;27;19915;-96
2023/12/11 08:54:30;;;;;;;;;;;;;;;4.99;100.00;99213.97;5099984;27;20052;-96
2023/12/11 08:56:56;;;;;;;;;;;;;;;5.01;100.00;99212.06;5095261;27;19915;-96
2023/12/11 08:59:21;;;;;;;;;;;;;;;5.04;100.00;99224.03;5089269;27;19951;-96
2023/12/11 09:01:47;;;;;;;;;;;;;;;5.11;100.00;99221.69;5100016;27;19943;-96
2023/12/11 09:04:13;;;;;;;;;;;;;;;5.18;100.00;99214.94;5103790;27;19998;-96
2023/12/11 09:06:38;;;;;;;;;;;;;;;5.22;100.00;99211.09;5100685;27;19923;-96
2023/12/11 09:09:04;;;;;;;;;;;;;;;4.99;100.00;99216.59;5108645;27;19915;-96
2023/12/11 09:11:30;;;;;;;;;;;;;;;4.89;100.00;99213.19;5099153;27;19923;-96
2023/12/11 09:13:56;;;;;;;;;;;;;;;4.84;100.00;99213.59;5094786;27;20283;-96
2023/12/11 09:16:21;;;;;;;;;;;;;;;4.90;100.00;99209.59;5106491;27;19923;-96
2023/12/11 09:18:47;;;;;;;;;;;;;;;4.97;100.00;99213.28;5116363;27;19915;-96
2023/12/11 09:21:13;;;;;;;;;;;;;;;5.02;100.00;99220.72;5098815;27;19950;-96
2023/12/11 09:23:38;;;;;;;;;;;;;;;5.00;100.00;99215.63;5099914;27;19915;-96
2023/12/11 09:26:04;;;;;;;;;;;;;;;4.99;100.00;99216.59;5098118;27;19915;-96
2023/12/11 09:28:29;;;;;;;;;;;;;;;4.89;100.00;99226.25;5093205;27;20076;-96
2023/12/11 09:30:55;;;;;;;;;;;;;;;4.77;100.00;99228.16;5098711;27;19915;-96
2023/12/11 09:33:21;;;;;;;;;;;;;;;4.74;100.00;99220.59;5095566;27;19915;-96
2023/12/11 09:35:47;;;;;;;;;;;;;;;4.75;100.00;99230.09;5099273;27;19915;-96
2023/12/11 09:38:13;;;;;;;;;;;;;;;4.80;100.00;99236.59;5091185;27;20371;-96
2023/12/11 09:40:38;;;;;;;;;;;;;;;4.89;100.00;99239.34;5099040;27;20307;-96
2023/12/11 09:43:04;;;;;;;;;;;;;;;4.97;100.00;99229.00;5088779;27;19923;-96
2023/12/11 09:45:30;;;;;;;;;;;;;;;5.00;100.00;99226.09;5086251;27;19915;-96
2023/12/11 09:47:57;;;;;;;;;;;;;;;4.98;100.00;99235.91;5094667;27;19921;-96
2023/12/11 09:50:24;;;;;;;;;;;;;;;5.03;100.00;99238.13;5099628;27;19923;-96
2023/12/11 09:52:51;;;;;;;;;;;;;;;5.06;100.00;99238.69;5096874;27;19915;-96
2023/12/11 09:55:17;;;;;;;;;;;;;;;5.11;100.00;99240.03;5085734;27;19948;-96
2023/12/11 09:57:45;;;;;;;;;;;;;;;5.15;100.00;99242.25;5103660;27;20437;-96
2023/12/11 10:00:13;;;;;;;;;;;;;;;5.21;100.00;99243.47;5087246;27;19926;-96
2023/12/11 10:02:40;;;;;;;;;;;;;;;5.27;100.00;99232.44;5091303;27;19930;-96
2023/12/11 10:05:07;;;;;;;;;;;;;;;5.32;100.00;99234.63;5097832;27;19927;-96
2023/12/11 10:07:34;;;;;;;;;;;;;;;5.37;100.00;99237.66;5094550;27;20002;-96
2023/12/11 10:10:15;;;;;;;;;;;;;;;5.40;100.00;99245.25;5093977;27;19972;-96
2023/12/11 10:12:41;;;;;;;;;;;;;;;5.45;100.00;99244.81;5098758;27;20368;-96
2023/12/11 10:15:07;;;;;;;;;;;;;;;5.50;100.00;99247.00;5114951;27;19915;-96
2023/12/11 10:17:32;;;;;;;;;;;;;;;5.51;100.00;99246.06;5099861;28;20012;-96
2023/12/11 10:19:58;;;;;;;;;;;;;;;5.53;100.00;99244.09;5107713;27;19915;-96
2023/12/11 10:22:28;;;;;;;;;;;;;;;5.58;100.00;99247.97;5117701;27;19916;-96
2023/12/11 10:24:54;;;;;;;;;;;;;;;5.62;100.00;99250.31;5102366;27;20375;-95
2023/12/11 10:27:26;;;;;;;;;;;;;;;5.66;100.00;99251.66;5100255;28;19926;-96
2023/12/11 10:30:22;;;;;;;;;;;;;;;5.73;100.00;99263.25;5099363;27;19923;-96
2023/12/11 10:32:48;;;;;;;;;;;;;;;5.80;100.00;99264.34;5094664;28;20010;-96
2023/12/11 10:35:23;;;;;;;;;;;;;;;5.82;100.00;99270.28;5099602;27;20392;-96
2023/12/11 10:37:49;;;;;;;;;;;;;;;5.87;100.00;99266.38;5092831;27;19915;-96
2023/12/11 10:40:15;;;;;;;;;;;;;;;5.90;100.00;99266.09;5121191;28;20256;-96
2023/12/11 10:42:40;;;;;;;;;;;;;;;5.95;100.00;99262.09;5092478;27;19951;-96
2023/12/11 10:45:07;;;;;;;;;;;;;;;6.03;100.00;99263.16;5100116;28;19922;-96
2023/12/11 10:47:33;;;;;;;;;;;;;;;6.06;100.00;99255.03;5089368;28;19924;-96
2023/12/11 10:50:02;;;;;;;;;;;;;;;6.08;100.00;99256.53;5096891;28;19919;-96
2023/12/11 10:52:28;;;;;;;;;;;;;;;6.08;100.00;99258.34;5101578;28;20379;-96
2023/12/11 10:54:55;;;;;;;;;;;;;;;6.10;100.00;99252.94;5095566;28;19927;-96
2023/12/11 10:57:22;;;;;;;;;;;;;;;6.16;100.00;99255.00;5105391;27;19921;-96
2023/12/11 10:59:50;;;;;;;;;;;;;;;6.16;100.00;99244.50;5086509;28;20439;-96
2023/12/11 11:02:17;;;;;;;;;;;;;;;6.09;100.00;99241.63;5102411;27;19969;-96
2023/12/11 11:04:45;;;;;;;;;;;;;;;6.08;100.00;99243.41;5086383;28;19941;-96
2023/12/11 11:07:13;;;;;;;;;;;;;;;6.10;100.00;99234.59;5095187;27;19915;-96
2023/12/11 11:09:51;;;;;;;;;;;;;;;6.16;100.00;99231.38;5099153;28;19916;-96
2023/12/11 11:12:30;;;;;;;;;;;;;;;6.26;100.00;99218.22;5124990;27;20014;-96
2023/12/11 11:14:55;;;;;;;;;;;;;;;6.26;100.00;99226.88;5092158;28;19915;-96
2023/12/11 11:17:21;;;;;;;;;;;;;;;6.22;100.00;99229.94;5096492;28;19923;-96
2023/12/11 11:20:08;;;;;;;;;;;;;;;6.21;100.00;99239.66;5108322;28;19954;-96
2023/12/11 11:22:34;;;;;;;;;;;;;;;6.18;100.00;99232.88;5095446;28;19916;-96
2023/12/11 11:25:18;;;;;;;;;;;;;;;6.15;100.00;99225.28;5105125;28;20322;-95
2023/12/11 11:27:44;;;;;;;;;;;;;;;6.16;100.00;99226.13;5101188;28;19916;-96
2023/12/11 11:30:10;;;;;;;;;;;;;;;6.20;100.00;99225.69;5074314;27;19919;-96
2023/12/11 11:32:52;;;;;;;;;;;;;;;6.25;100.00;99214.75;5099614;27;19980;-96
2023/12/11 11:35:36;;;;;;;;;;;;;;;6.29;100.00;99223.97;5093159;28;19915;-96
2023/12/11 11:38:02;;;;;;;;;;;;;;;6.28;100.00;99208.38;5092602;27;19920;-96
2023/12/11 11:40:36;;;;;;;;;;;;;;;6.25;100.00;99209.50;5104171;27;19919;-96
2023/12/11 11:43:03;;;;;;;;;;;;;;;6.26;100.00;99205.91;5093723;27;19915;-96
2023/12/11 11:45:31;;;;;;;;;;;;;;;6.26;100.00;99190.16;5101358;27;20253;-96
2023/12/11 11:47:57;;;;;;;;;;;;;;;6.26;100.00;99176.22;5094826;27;20389;-96
2023/12/11 11:50:22;;;;;;;;;;;;;;;6.23;100.00;99176.53;5093350;27;19921;-96
2023/12/11 11:52:59;;;;;;;;;;;;;;;6.25;100.00;99166.69;5092205;28;19916;-96
2023/12/11 11:55:26;;;;;;;;;;;;;;;6.26;100.00;99155.25;5096598;27;19916;-96
2023/12/11 11:57:52;;;;;;;;;;;;;;;6.23;100.00;99142.41;5106747;28;19960;-96
2023/12/11 12:00:25;;;;;;;;;;;;;;;6.23;100.00;99153.72;5086607;27;19924;-96
2023/12/11 12:02:57;;;;;;;;;;;;;;;6.32;100.00;99149.38;5106324;27;19919;-96
2023/12/11 12:05:23;;;;;;;;;;;;;;;6.35;100.00;99154.34;5107527;27;19969;-96
2023/12/11 12:07:49;;;;;;;;;;;;;;;6.40;100.00;99151.28;5088970;28;19916;-96
2023/12/11 12:10:16;;;;;;;;;;;;;;;6.50;100.00;99148.56;5094583;27;19915;-96
2023/12/11 12:12:42;;;;;;;;;;;;;;;6.61;100.00;99150.16;5082579;28;20310;-95
2023/12/11 12:15:08;;;;;;;;;;;;;;;6.73;100.00;99142.84;5083498;28;19916;-96
2023/12/11 12:17:34;;;;;;;;;;;;;;;6.82;100.00;99134.88;5096101;28;20284;-96
2023/12/11 12:20:08;;;;;;;;;;;;;;;6.90;100.00;99130.66;5105623;28;19916;-95
2023/12/11 12:22:34;;;;;;;;;;;;;;;6.95;100.00;99131.88;5095378;28;19922;-95
2023/12/11 12:25:00;;;;;;;;;;;;;;;7.01;100.00;99133.03;5091282;28;19955;-96
2023/12/11 12:27:26;;;;;;;;;;;;;;;7.06;100.00;99130.78;5093854;28;19959;-96
2023/12/11 12:29:52;;;;;;;;;;;;;;;7.11;100.00;99130.31;5091274;28;19922;-96
2023/12/11 12:32:18;;;;;;;;;;;;;;;7.17;100.00;99128.88;5104983;28;19993;-96
2023/12/11 12:34:46;;;;;;;;;;;;;;;7.18;100.00;99118.22;5094014;28;19919;-96
2023/12/11 12:37:13;;;;;;;;;;;;;;;7.25;100.00;99117.59;5106176;27;20002;-96
2023/12/11 12:39:39;;;;;;;;;;;;;;;7.33;100.00;99109.75;5103952;27;19922;-96
2023/12/11 12:42:05;;;;;;;;;;;;;;;7.41;100.00;99103.72;5102465;28;19923;-96
2023/12/11 12:44:37;;;;;;;;;;;;;;;7.49;100.00;99097.66;5112595;28;19916;-96
2023/12/11 12:47:03;;;;;;;;;;;;;;;7.55;100.00;99087.34;5114455;28;19920;-96
2023/12/11 12:49:30;;;;;;;;;;;;;;;7.65;100.00;99091.66;5099837;27;20301;-96
2023/12/11 12:51:57;;;;;;;;;;;;;;;7.72;100.00;99084.78;5107870;28;19949;-96
2023/12/11 12:54:23;;;;;;;;;;;;;;;7.79;100.00;99091.03;5088714;27;19919;-96
2023/12/11 12:56:52;;;;;;;;;;;;;;;7.84;100.00;99085.31;5097642;27;19923;-96
2023/12/11 12:59:19;;;;;;;;;;;;;;;7.87;100.00;99076.28;5099985;28;19916;-96
2023/12/11 13:01:44;;;;;;;;;;;;;;;7.87;100.00;99071.81;5082407;28;19919;-96
2023/12/11 13:04:11;;;;;;;;;;;;;;;7.90;100.00;99068.88;5085667;27;19922;-95